createdAt,value
2019-05-20T00:02:28.366Z,75.34
2019-05-20T00:04:57.876Z,75.75
2019-05-20T00:07:28.686Z,75.69
2019-05-20T00:09:59.580Z,75.72
2019-05-20T00:12:30.488Z,75.57
2019-05-20T00:15:01.072Z,75.85
2019-05-20T00:17:31.974Z,76.04
2019-05-20T00:20:03.043Z,75.72
2019-05-20T00:22:33.821Z,76.14
2019-05-20T00:25:07.940Z,76.12
2019-05-20T00:27:38.772Z,76.16
2019-05-20T00:30:09.951Z,76.47
2019-05-20T00:32:42.351Z,76.44
2019-05-20T00:35:13.738Z,76.38
2019-05-20T00:37:44.561Z,76.27
2019-05-20T00:40:15.994Z,76.58
2019-05-20T00:42:46.808Z,76.61
2019-05-20T00:45:17.819Z,76.75
2019-05-20T00:47:48.218Z,76.79
2019-05-20T00:50:18.860Z,76.69
2019-05-20T00:52:49.629Z,76.84
2019-05-20T00:55:26.929Z,76.89
2019-05-20T00:57:57.464Z,76.90
2019-05-20T01:00:28.594Z,76.79
2019-05-20T01:02:59.400Z,76.99
2019-05-20T01:05:30.241Z,76.96
2019-05-20T01:08:01.074Z,76.44
2019-05-20T01:10:31.910Z,77.24
2019-05-20T01:13:02.685Z,76.99
2019-05-20T01:15:33.847Z,77.09
2019-05-20T01:18:04.646Z,77.26
2019-05-20T01:20:35.667Z,77.45
2019-05-20T01:23:06.411Z,77.68
2019-05-20T01:25:37.263Z,77.58
2019-05-20T01:28:08.015Z,77.38
2019-05-20T01:30:38.830Z,77.92
2019-05-20T01:33:13.678Z,77.87
2019-05-20T01:35:41.791Z,77.66
2019-05-20T01:38:12.553Z,77.44
2019-05-20T01:40:44.435Z,77.61
2019-05-20T01:43:15.333Z,77.57
2019-05-20T01:45:47.854Z,78.08
2019-05-20T01:48:18.699Z,77.89
2019-05-20T01:50:49.624Z,77.93
2019-05-20T01:53:20.132Z,77.84
2019-05-20T01:55:50.527Z,77.89
2019-05-20T01:58:21.519Z,78.12
2019-05-20T02:00:52.934Z,77.77
2019-05-20T02:03:31.801Z,77.91
2019-05-20T02:05:56.152Z,78.01
2019-05-20T02:08:26.621Z,77.82
2019-05-20T02:10:57.450Z,77.61
2019-05-20T02:13:29.899Z,77.34
2019-05-20T02:16:05.058Z,77.08
2019-05-20T02:18:35.783Z,77.50
2019-05-20T02:21:06.614Z,77.25
2019-05-20T02:23:37.476Z,78.04
2019-05-20T02:26:07.978Z,77.79
2019-05-20T02:28:38.825Z,78.31
2019-05-20T02:31:10.001Z,78.44
2019-05-20T02:33:51.451Z,78.62
2019-05-20T02:36:13.312Z,78.81
2019-05-20T02:38:43.799Z,78.95
2019-05-20T02:41:14.327Z,78.95
2019-05-20T02:43:45.235Z,79.20
2019-05-20T02:46:16.000Z,79.37
2019-05-20T02:48:46.838Z,79.15
2019-05-20T02:51:19.416Z,79.14
2019-05-20T02:53:49.895Z,78.72
2019-05-20T02:56:20.857Z,79.27
2019-05-20T02:58:51.758Z,79.06
2019-05-20T03:01:22.540Z,79.09
2019-05-20T03:04:09.968Z,79.48
2019-05-20T03:06:26.053Z,79.67
2019-05-20T03:08:56.878Z,79.46
2019-05-20T03:11:27.697Z,79.44
2019-05-20T03:13:58.506Z,79.39
2019-05-20T03:16:29.428Z,79.17
2019-05-20T03:19:00.256Z,79.75
2019-05-20T03:21:31.147Z,79.65
2019-05-20T03:24:01.674Z,79.89
2019-05-20T03:26:32.750Z,79.89
2019-05-20T03:29:03.517Z,80.03
2019-05-20T03:31:34.539Z,79.86
2019-05-20T03:34:05.492Z,79.74
2019-05-20T03:36:36.727Z,79.97
2019-05-20T03:39:07.564Z,79.44
2019-05-20T03:41:38.302Z,79.80
2019-05-20T03:44:09.140Z,80.24
2019-05-20T03:46:39.987Z,79.85
2019-05-20T03:49:10.907Z,79.80
2019-05-20T03:51:41.957Z,80.12
2019-05-20T03:54:12.780Z,79.97
2019-05-20T03:56:43.638Z,79.80
2019-05-20T03:59:14.455Z,80.48
2019-05-20T04:01:45.319Z,79.73
2019-05-20T04:04:16.214Z,79.76
2019-05-20T04:06:47.323Z,79.94
2019-05-20T04:09:17.825Z,79.99
2019-05-20T04:11:48.610Z,80.04
2019-05-20T04:14:19.546Z,79.94
2019-05-20T04:16:51.973Z,80.50
2019-05-20T04:19:22.952Z,80.04
2019-05-20T04:21:53.956Z,80.02
2019-05-20T04:24:24.412Z,80.27
2019-05-20T04:27:01.564Z,79.61
2019-05-20T04:29:32.420Z,80.14
2019-05-20T04:32:03.277Z,80.35
2019-05-20T04:34:34.084Z,79.89
2019-05-20T04:37:04.652Z,80.31
2019-05-20T04:39:35.538Z,80.00
2019-05-20T04:42:07.039Z,79.69
2019-05-20T04:44:38.254Z,79.46
2019-05-20T04:47:09.118Z,79.67
2019-05-20T04:49:39.602Z,79.41
2019-05-20T04:52:10.351Z,79.33
2019-05-20T04:54:41.058Z,78.91
2019-05-20T04:57:11.934Z,78.65
2019-05-20T04:59:42.843Z,77.87
2019-05-20T05:02:13.671Z,77.48
2019-05-20T05:04:44.403Z,77.50
2019-05-20T05:07:15.380Z,77.57
2019-05-20T05:09:46.176Z,77.71
2019-05-20T05:12:16.912Z,77.73
2019-05-20T05:14:47.801Z,77.57
2019-05-20T05:17:18.712Z,77.66
2019-05-20T05:19:49.730Z,77.74
2019-05-20T05:22:20.594Z,77.95
2019-05-20T05:24:51.461Z,77.63
2019-05-20T05:27:22.338Z,76.88
2019-05-20T05:29:53.345Z,76.17
2019-05-20T05:32:43.883Z,75.85
2019-05-20T05:35:18.313Z,74.78
2019-05-20T05:37:49.325Z,74.43
2019-05-20T05:40:23.261Z,73.85
2019-05-20T05:42:54.274Z,73.12
2019-05-20T05:45:30.615Z,73.11
2019-05-20T05:48:01.640Z,73.42
2019-05-20T05:50:32.454Z,73.44
2019-05-20T05:53:03.362Z,74.03
2019-05-20T05:55:34.266Z,74.06
2019-05-20T05:58:08.363Z,74.14
2019-05-20T06:00:37.368Z,73.47
2019-05-20T06:03:08.505Z,73.14
2019-05-20T06:05:39.425Z,73.02
2019-05-20T06:08:10.263Z,73.08
2019-05-20T06:10:41.088Z,72.84
2019-05-20T06:13:11.937Z,72.31
2019-05-20T06:15:42.776Z,71.56
2019-05-20T06:18:13.322Z,71.43
2019-05-20T06:20:44.370Z,71.47
2019-05-20T06:23:15.284Z,71.35
2019-05-20T06:25:46.233Z,71.49
2019-05-20T06:28:17.064Z,71.33
2019-05-20T06:30:48.133Z,71.40
2019-05-20T06:33:19.054Z,71.30
2019-05-20T06:35:50.687Z,71.59
2019-05-20T06:38:35.191Z,71.27
2019-05-20T06:41:07.656Z,71.59
2019-05-20T06:43:38.728Z,71.40
2019-05-20T06:46:10.015Z,70.94
2019-05-20T06:48:40.981Z,71.69
2019-05-20T06:51:11.792Z,71.44
2019-05-20T06:53:42.618Z,71.55
2019-05-20T06:56:13.699Z,71.53
2019-05-20T06:58:44.593Z,71.38
2019-05-20T07:01:15.407Z,71.19
2019-05-20T07:03:46.287Z,71.00
2019-05-20T07:06:17.165Z,71.06
2019-05-20T07:08:49.077Z,71.02
2019-05-20T07:11:19.930Z,70.67
2019-05-20T07:13:51.157Z,70.24
2019-05-20T07:16:21.997Z,70.07
2019-05-20T07:18:53.055Z,69.97
2019-05-20T07:21:24.039Z,69.72
2019-05-20T07:23:54.587Z,69.53
2019-05-20T07:26:25.605Z,69.07
2019-05-20T07:28:57.525Z,69.15
2019-05-20T07:31:28.608Z,68.19
2019-05-20T07:33:59.583Z,68.27
2019-05-20T07:36:30.483Z,68.58
2019-05-20T07:39:01.333Z,68.29
2019-05-20T07:41:33.794Z,68.06
2019-05-20T07:44:04.414Z,68.10
2019-05-20T07:46:35.991Z,68.32
2019-05-20T07:49:07.862Z,68.27
2019-05-20T07:51:40.278Z,67.88
2019-05-20T07:54:12.069Z,67.95
2019-05-20T07:56:46.498Z,67.74
2019-05-20T07:59:20.515Z,67.22
2019-05-20T08:01:51.675Z,67.19
2019-05-20T08:04:22.213Z,66.57
2019-05-20T08:06:53.075Z,66.82
2019-05-20T08:09:24.086Z,66.38
2019-05-20T08:11:54.667Z,66.42
2019-05-20T08:14:25.565Z,65.97
2019-05-20T08:16:56.604Z,65.41
2019-05-20T08:19:27.175Z,65.63
2019-05-20T08:21:58.166Z,66.14
2019-05-20T08:24:29.955Z,65.97
2019-05-20T08:27:00.931Z,66.31
2019-05-20T08:29:32.093Z,65.69
2019-05-20T08:32:04.514Z,65.32
2019-05-20T08:34:37.947Z,65.37
2019-05-20T08:37:09.947Z,65.35
2019-05-20T08:39:40.995Z,64.99
2019-05-20T08:42:11.971Z,64.98
2019-05-20T08:44:45.750Z,65.01
2019-05-20T08:47:16.864Z,64.29
2019-05-20T08:49:47.778Z,63.38
2019-05-20T08:52:22.039Z,63.53
2019-05-20T08:54:52.659Z,62.50
2019-05-20T08:57:25.197Z,63.36
2019-05-20T08:59:56.205Z,63.86
2019-05-20T09:02:27.050Z,63.16
2019-05-20T09:04:57.977Z,63.20
2019-05-20T09:07:28.968Z,63.16
2019-05-20T09:10:00.024Z,62.97
2019-05-20T09:12:30.969Z,62.53
2019-05-20T09:15:02.252Z,62.04
2019-05-20T09:17:33.178Z,61.96
2019-05-20T09:20:05.653Z,61.73
2019-05-20T09:22:36.761Z,60.67
2019-05-20T09:25:08.734Z,60.95
2019-05-20T09:27:39.753Z,59.61
2019-05-20T09:30:11.679Z,60.28
2019-05-20T09:32:43.401Z,60.03
2019-05-20T09:35:15.400Z,59.60
2019-05-20T09:37:46.257Z,58.42
2019-05-20T09:40:37.085Z,57.94
2019-05-20T09:43:07.738Z,58.09
2019-05-20T09:45:38.645Z,57.90
2019-05-20T09:48:10.140Z,57.78
2019-05-20T09:50:41.660Z,56.95
2019-05-20T09:53:12.600Z,56.58
2019-05-20T09:55:45.844Z,56.65
2019-05-20T09:58:16.574Z,57.41
2019-05-20T10:00:47.545Z,56.22
2019-05-20T10:03:18.393Z,54.33
2019-05-20T10:05:49.306Z,53.64
2019-05-20T10:08:36.330Z,53.45
2019-05-20T10:10:51.936Z,53.61
2019-05-20T10:13:22.753Z,52.73
2019-05-20T10:15:53.555Z,53.42
2019-05-20T10:18:36.742Z,53.12
2019-05-20T10:20:57.280Z,53.05
2019-05-20T10:23:28.395Z,53.14
2019-05-20T10:25:58.893Z,53.42
2019-05-20T10:28:29.850Z,53.09
2019-05-20T10:31:00.383Z,53.78
2019-05-20T10:33:31.265Z,53.92
2019-05-20T10:36:01.982Z,53.19
2019-05-20T10:38:32.472Z,53.56
2019-05-20T10:41:03.386Z,54.44
2019-05-20T10:43:34.298Z,54.93
2019-05-20T10:46:05.257Z,55.19
2019-05-20T10:48:36.073Z,54.59
2019-05-20T10:51:10.254Z,54.26
2019-05-20T10:53:39.644Z,53.93
2019-05-20T10:56:10.752Z,52.38
2019-05-20T10:58:41.616Z,51.90
2019-05-20T11:01:12.508Z,50.30
2019-05-20T11:03:42.891Z,50.30
2019-05-20T11:06:13.778Z,49.90
2019-05-20T11:08:44.609Z,49.71
2019-05-20T11:11:15.067Z,49.88
2019-05-20T11:13:47.463Z,50.33
2019-05-20T11:16:18.332Z,50.47
2019-05-20T11:18:49.288Z,50.32
2019-05-20T11:21:20.061Z,50.10
2019-05-20T11:23:50.876Z,50.56
2019-05-20T11:26:21.341Z,50.29
2019-05-20T11:28:52.238Z,50.57
2019-05-20T11:31:22.956Z,50.86
2019-05-20T11:33:57.428Z,50.99
2019-05-20T11:36:29.832Z,51.31
2019-05-20T11:39:00.841Z,51.10
2019-05-20T11:41:52.179Z,51.07
2019-05-20T11:44:04.725Z,51.69
2019-05-20T11:46:35.656Z,51.78
2019-05-20T11:49:07.148Z,51.83
2019-05-20T11:51:38.094Z,51.73
2019-05-20T11:54:08.876Z,51.65
2019-05-20T11:56:39.503Z,51.93
2019-05-20T11:59:10.373Z,51.66
2019-05-20T12:01:41.316Z,51.40
2019-05-20T12:04:12.223Z,51.68
2019-05-20T12:06:43.132Z,51.56
2019-05-20T12:09:13.619Z,51.80
2019-05-20T12:11:44.483Z,51.00
2019-05-20T12:14:15.276Z,51.42
2019-05-20T12:16:46.135Z,51.67
2019-05-20T12:19:17.056Z,52.42
2019-05-20T12:21:47.966Z,52.35
2019-05-20T12:24:18.994Z,52.54
2019-05-20T12:26:49.547Z,52.89
2019-05-20T12:29:20.480Z,52.93
2019-05-20T12:31:50.914Z,53.13
2019-05-20T12:34:21.800Z,53.01
2019-05-20T12:36:52.334Z,52.67
2019-05-20T12:39:23.179Z,52.50
2019-05-20T12:41:54.205Z,52.45
2019-05-20T12:44:25.089Z,51.76
2019-05-20T12:46:55.741Z,51.36
2019-05-20T12:49:26.751Z,51.43
2019-05-20T12:51:57.834Z,51.17
2019-05-20T12:54:28.851Z,51.54
2019-05-20T12:56:59.392Z,51.69
2019-05-20T12:59:30.387Z,52.12
2019-05-20T13:02:01.349Z,52.00
2019-05-20T13:04:33.017Z,52.62
2019-05-20T13:07:04.141Z,52.84
2019-05-20T13:09:34.970Z,52.50
2019-05-20T13:12:05.861Z,52.41
2019-05-20T13:14:36.410Z,52.30
2019-05-20T13:17:07.376Z,52.02
2019-05-20T13:19:38.299Z,51.90
2019-05-20T13:22:09.243Z,52.24
2019-05-20T13:24:39.836Z,52.47
2019-05-20T13:27:10.404Z,53.30
2019-05-20T13:29:40.993Z,53.52
2019-05-20T13:32:11.825Z,53.41
2019-05-20T13:34:42.842Z,53.81
2019-05-20T13:37:16.453Z,53.87
2019-05-20T13:39:47.381Z,54.29
2019-05-20T13:42:18.264Z,54.23
2019-05-20T13:44:49.179Z,53.91
2019-05-20T13:47:21.796Z,54.62
2019-05-20T13:49:52.810Z,55.05
2019-05-20T13:52:23.679Z,55.18
2019-05-20T13:54:54.511Z,55.42
2019-05-20T13:57:25.302Z,55.97
2019-05-20T13:59:56.177Z,56.20
2019-05-20T14:02:27.136Z,56.48
2019-05-20T14:04:58.590Z,56.47
2019-05-20T14:07:29.685Z,57.12
2019-05-20T14:10:00.238Z,56.87
2019-05-20T14:12:31.012Z,57.43
2019-05-20T14:15:01.940Z,58.01
2019-05-20T14:17:32.958Z,59.71
2019-05-20T14:20:09.801Z,61.72
2019-05-20T14:22:40.427Z,62.35
2019-05-20T14:25:11.569Z,62.58
2019-05-20T14:27:42.611Z,61.50
2019-05-20T14:30:14.595Z,65.36
2019-05-20T14:32:47.131Z,66.66
2019-05-20T14:35:18.254Z,66.23
2019-05-20T14:37:48.875Z,72.40
2019-05-20T14:40:20.013Z,72.64
2019-05-20T14:42:50.856Z,74.15
2019-05-20T14:45:21.795Z,75.43
2019-05-20T14:47:53.091Z,75.60
2019-05-20T14:50:24.105Z,76.36
2019-05-20T14:52:54.616Z,82.16
2019-05-20T14:55:25.611Z,80.23
2019-05-20T14:57:56.589Z,80.22
2019-05-20T15:00:30.707Z,80.07
2019-05-20T15:03:01.660Z,78.26
2019-05-20T15:05:32.616Z,79.25
2019-05-20T15:08:03.743Z,79.53
2019-05-20T15:10:34.644Z,78.93
2019-05-20T15:13:05.526Z,78.80
2019-05-20T15:15:36.367Z,79.84
2019-05-20T15:18:07.158Z,82.05
2019-05-20T15:20:37.995Z,77.56
2019-05-20T15:23:08.807Z,78.22
2019-05-20T15:25:39.685Z,87.26
2019-05-20T15:28:10.778Z,88.15
2019-05-20T15:30:41.613Z,89.88
2019-05-20T15:33:12.597Z,91.08
2019-05-20T15:35:43.515Z,91.02
2019-05-20T15:38:14.384Z,91.70
2019-05-20T15:40:45.302Z,92.22
2019-05-20T15:43:16.118Z,91.83
2019-05-20T15:45:46.788Z,91.61
2019-05-20T15:48:17.286Z,91.25
2019-05-20T15:50:48.064Z,90.85
2019-05-20T15:53:19.077Z,91.19
2019-05-20T15:55:49.767Z,91.86
2019-05-20T15:58:23.687Z,90.71
2019-05-20T16:00:53.128Z,90.86
2019-05-20T16:03:24.107Z,92.23
2019-05-20T16:05:55.006Z,93.03
2019-05-20T16:08:25.830Z,93.22
2019-05-20T16:10:56.688Z,93.15
2019-05-20T16:13:27.613Z,93.30
2019-05-20T16:15:58.474Z,93.36
2019-05-20T16:18:29.575Z,93.11
2019-05-20T16:21:00.653Z,92.68
2019-05-20T16:23:31.606Z,92.39
2019-05-20T16:26:02.448Z,92.68
2019-05-20T16:28:33.261Z,92.02
2019-05-20T16:31:04.215Z,92.79
2019-05-20T16:33:34.989Z,92.01
2019-05-20T16:36:05.855Z,92.48
2019-05-20T16:38:36.802Z,92.07
2019-05-20T16:41:07.310Z,91.51
2019-05-20T16:43:38.206Z,91.52
2019-05-20T16:46:08.719Z,90.56
2019-05-20T16:48:39.648Z,89.21
2019-05-20T16:51:10.687Z,88.26
2019-05-20T16:53:43.124Z,88.80
2019-05-20T16:56:14.006Z,88.45
2019-05-20T16:58:44.985Z,88.63
2019-05-20T17:01:15.475Z,89.58
2019-05-20T17:03:46.282Z,88.29
2019-05-20T17:06:17.153Z,87.22
2019-05-20T17:08:48.177Z,86.22
2019-05-20T17:11:18.924Z,85.14
2019-05-20T17:13:49.878Z,84.86
2019-05-20T17:16:21.593Z,85.47
2019-05-20T17:18:52.557Z,86.77
2019-05-20T17:21:23.573Z,87.99
2019-05-20T17:23:54.545Z,87.59
2019-05-20T17:26:25.479Z,88.59
2019-05-20T17:28:56.496Z,88.25
2019-05-20T17:31:30.168Z,88.13
2019-05-20T17:33:59.667Z,88.48
2019-05-20T17:36:30.916Z,87.72
2019-05-20T17:39:02.132Z,87.57
2019-05-20T17:41:32.793Z,87.97
2019-05-20T17:44:03.686Z,87.52
2019-05-20T17:46:35.615Z,88.00
2019-05-20T17:49:06.383Z,89.15
2019-05-20T17:51:37.713Z,88.72
2019-05-20T17:54:08.321Z,87.88
2019-05-20T17:56:39.661Z,87.97
2019-05-20T17:59:10.334Z,88.03
2019-05-20T18:01:41.149Z,87.72
2019-05-20T18:04:12.096Z,88.48
2019-05-20T18:06:44.588Z,88.23
2019-05-20T18:09:15.507Z,87.80
2019-05-20T18:11:46.632Z,88.13
2019-05-20T18:14:17.175Z,87.85
2019-05-20T18:16:48.100Z,88.13
2019-05-20T18:19:19.154Z,87.79
2019-05-20T18:21:51.693Z,87.19
2019-05-20T18:24:22.951Z,87.44
2019-05-20T18:26:55.088Z,87.95
2019-05-20T18:29:25.867Z,87.93
2019-05-20T18:31:56.775Z,88.44
2019-05-20T18:34:27.655Z,88.65
2019-05-20T18:36:58.566Z,89.00
2019-05-20T18:39:29.565Z,89.12
2019-05-20T18:42:00.104Z,89.30
2019-05-20T18:44:31.031Z,89.74
2019-05-20T18:47:01.867Z,89.52
2019-05-20T18:49:33.038Z,89.42
2019-05-20T18:52:04.398Z,89.54
2019-05-20T18:54:35.224Z,89.64
2019-05-20T18:57:06.178Z,89.89
2019-05-20T18:59:37.066Z,89.13
2019-05-20T19:02:07.529Z,89.20
2019-05-20T19:04:38.438Z,89.10
2019-05-20T19:07:21.957Z,89.49
2019-05-20T19:09:49.434Z,89.37
2019-05-20T19:12:20.145Z,89.33
2019-05-20T19:14:50.696Z,89.24
2019-05-20T19:17:21.381Z,89.34
2019-05-20T19:19:52.456Z,89.31
2019-05-20T19:22:23.405Z,89.11
2019-05-20T19:24:55.751Z,89.03
2019-05-20T19:27:28.121Z,89.13
2019-05-20T19:30:04.311Z,89.83
2019-05-20T19:32:34.208Z,89.47
2019-05-20T19:35:09.784Z,89.42
2019-05-20T19:37:40.744Z,88.61
2019-05-20T19:40:12.894Z,88.85
2019-05-20T19:42:43.742Z,88.39
2019-05-20T19:45:15.058Z,88.59
2019-05-20T19:47:45.882Z,89.01
2019-05-20T19:50:18.387Z,89.08
2019-05-20T19:52:49.355Z,89.23
2019-05-20T19:55:19.900Z,89.12
2019-05-20T19:57:51.769Z,88.69
2019-05-20T20:00:23.957Z,88.55
2019-05-20T20:02:54.820Z,88.97
2019-05-20T20:05:25.666Z,88.34
2019-05-20T20:07:56.615Z,88.47
2019-05-20T20:10:27.426Z,88.83
2019-05-20T20:12:58.269Z,88.40
2019-05-20T20:15:29.175Z,88.42
2019-05-20T20:18:00.102Z,88.47
2019-05-20T20:20:30.872Z,88.45
2019-05-20T20:23:01.907Z,88.64
2019-05-20T20:25:32.843Z,88.31
2019-05-20T20:28:05.370Z,88.17
2019-05-20T20:30:36.475Z,87.90
2019-05-20T20:33:07.145Z,88.07
2019-05-20T20:35:38.616Z,87.99
2019-05-20T20:38:09.612Z,87.87
2019-05-20T20:40:40.552Z,87.85
2019-05-20T20:43:11.560Z,88.30
2019-05-20T20:45:44.054Z,88.17
2019-05-20T20:48:14.535Z,88.22
2019-05-20T20:50:46.889Z,88.07
2019-05-20T20:53:36.591Z,88.17
2019-05-20T20:56:07.187Z,88.21
2019-05-20T20:58:38.096Z,88.16
2019-05-20T21:01:08.973Z,87.55
2019-05-20T21:03:42.456Z,87.50
2019-05-20T21:06:13.390Z,87.60
2019-05-20T21:08:44.133Z,87.60
2019-05-20T21:11:16.968Z,86.98
2019-05-20T21:13:48.637Z,87.06
2019-05-20T21:16:19.547Z,87.13
2019-05-20T21:18:50.420Z,86.89
2019-05-20T21:21:21.354Z,86.89
2019-05-20T21:23:52.099Z,85.90
2019-05-20T21:26:22.952Z,85.70
2019-05-20T21:28:53.872Z,86.36
2019-05-20T21:31:24.869Z,85.58
2019-05-20T21:33:55.752Z,86.01
2019-05-20T21:36:26.645Z,86.22
2019-05-20T21:38:57.527Z,86.53
2019-05-20T21:41:28.023Z,86.38
2019-05-20T21:43:58.934Z,86.34
2019-05-20T21:46:29.726Z,86.50
2019-05-20T21:49:00.651Z,86.27
2019-05-20T21:51:31.525Z,86.39
2019-05-20T21:54:02.337Z,86.29
2019-05-20T21:56:33.268Z,85.84
2019-05-20T21:59:04.112Z,85.82
2019-05-20T22:01:34.945Z,85.60
2019-05-20T22:04:05.784Z,86.08
2019-05-20T22:06:36.529Z,85.16
2019-05-20T22:09:07.777Z,85.49
2019-05-20T22:11:38.536Z,85.77
2019-05-20T22:14:09.347Z,85.62
2019-05-20T22:16:40.749Z,85.57
2019-05-20T22:19:11.539Z,85.76
2019-05-20T22:21:44.054Z,85.57
2019-05-20T22:24:14.675Z,85.75
2019-05-20T22:26:45.499Z,85.94
2019-05-20T22:29:16.388Z,86.37
2019-05-20T22:32:23.397Z,85.98
2019-05-20T22:34:54.120Z,85.85
2019-05-20T22:37:24.639Z,85.99
2019-05-20T22:39:55.413Z,86.06
2019-05-20T22:42:26.278Z,86.22
2019-05-20T22:44:57.077Z,86.03
2019-05-20T22:47:27.798Z,86.54
2019-05-20T22:49:58.769Z,86.08
2019-05-20T22:52:29.746Z,85.92
2019-05-20T22:55:00.683Z,85.43
2019-05-20T22:57:32.890Z,85.66
2019-05-20T23:00:04.970Z,85.70
2019-05-20T23:02:35.791Z,86.26
2019-05-20T23:05:06.902Z,86.83
2019-05-20T23:07:37.733Z,86.49
2019-05-20T23:10:10.689Z,86.41
2019-05-20T23:12:42.907Z,86.64
2019-05-20T23:15:14.075Z,86.62
2019-05-20T23:17:44.905Z,86.65
2019-05-20T23:20:15.925Z,86.82
2019-05-20T23:22:46.501Z,86.42
2019-05-20T23:25:17.517Z,86.49
2019-05-20T23:27:48.077Z,87.13
2019-05-20T23:30:19.938Z,86.96
2019-05-20T23:32:50.439Z,87.04
2019-05-20T23:35:21.317Z,86.95
2019-05-20T23:37:54.994Z,87.10
2019-05-20T23:40:25.833Z,86.84
2019-05-20T23:42:59.830Z,86.72
2019-05-20T23:45:31.804Z,86.77
2019-05-20T23:48:02.829Z,86.98
2019-05-20T23:50:33.663Z,86.93
2019-05-20T23:53:04.518Z,86.78
2019-05-20T23:55:37.483Z,86.73
2019-05-20T23:58:07.519Z,87.04
